createdAt,value
2023-04-05T00:01:36.708Z,81.91
2023-04-05T00:04:06.551Z,83.68
2023-04-05T00:06:35.441Z,84.58
2023-04-05T00:09:05.571Z,85.53
2023-04-05T00:11:34.676Z,84.30
2023-04-05T00:14:04.042Z,85.04
2023-04-05T00:16:32.989Z,85.39
2023-04-05T00:19:03.026Z,84.90
2023-04-05T00:21:31.531Z,83.86
2023-04-05T00:24:00.620Z,83.33
2023-04-05T00:26:29.047Z,82.77
2023-04-05T00:28:57.413Z,82.13
2023-04-05T00:31:25.852Z,82.58
2023-04-05T00:33:54.319Z,82.58
2023-04-05T00:36:22.752Z,82.78
2023-04-05T00:38:51.211Z,83.53
2023-04-05T00:41:19.818Z,82.98
2023-04-05T00:43:48.832Z,80.72
2023-04-05T00:46:17.798Z,81.75
2023-04-05T00:48:46.497Z,81.77
2023-04-05T00:51:14.963Z,77.90
2023-04-05T00:53:46.932Z,77.97
2023-04-05T00:56:18.449Z,77.94
2023-04-05T00:58:46.823Z,77.22
2023-04-05T01:01:20.657Z,76.60
2023-04-05T01:03:55.207Z,76.34
2023-04-05T01:06:55.994Z,76.30
2023-04-05T01:09:27.464Z,75.08
2023-04-05T01:12:00.150Z,74.14
2023-04-05T01:14:28.510Z,75.75
2023-04-05T01:16:59.260Z,73.77
2023-04-05T01:19:31.235Z,69.97
2023-04-05T01:22:39.197Z,69.29
2023-04-05T01:25:11.744Z,68.35
2023-04-05T01:28:13.985Z,68.18
2023-04-05T01:30:50.597Z,66.60
2023-04-05T01:33:42.525Z,67.84
2023-04-05T01:36:38.492Z,67.31
2023-04-05T01:39:09.511Z,65.75
2023-04-05T01:41:39.562Z,65.19
2023-04-05T01:44:08.061Z,63.21
2023-04-05T01:46:36.685Z,64.53
2023-04-05T01:49:05.849Z,64.10
2023-04-05T01:51:34.215Z,62.26
2023-04-05T01:54:02.566Z,64.08
2023-04-05T01:56:30.916Z,63.70
2023-04-05T01:58:59.296Z,63.26
2023-04-05T02:01:27.905Z,61.50
2023-04-05T02:03:56.450Z,61.04
2023-04-05T02:06:25.013Z,62.41
2023-04-05T02:08:53.532Z,61.58
2023-04-05T02:11:22.136Z,60.77
2023-04-05T02:13:50.572Z,60.33
2023-04-05T02:16:19.601Z,59.39
2023-04-05T02:18:53.904Z,60.83
2023-04-05T02:21:22.797Z,60.41
2023-04-05T02:23:51.448Z,59.74
2023-04-05T02:26:20.244Z,58.25
2023-04-05T02:28:49.005Z,57.09
2023-04-05T02:31:17.422Z,59.01
2023-04-05T02:33:45.866Z,55.06
2023-04-05T02:36:14.787Z,58.56
2023-04-05T02:38:43.166Z,58.38
2023-04-05T02:41:14.990Z,60.09
2023-04-05T02:43:43.404Z,57.29
2023-04-05T02:46:11.832Z,59.62
2023-04-05T02:48:40.229Z,55.68
2023-04-05T02:51:08.742Z,53.62
2023-04-05T02:53:37.651Z,53.82
2023-04-05T02:56:06.948Z,53.56
2023-04-05T02:58:35.298Z,53.45
2023-04-05T03:01:08.145Z,56.63
2023-04-05T03:03:36.678Z,55.58
2023-04-05T03:06:13.084Z,56.06
2023-04-05T03:08:45.244Z,54.86
2023-04-05T03:11:14.217Z,52.21
2023-04-05T03:13:43.074Z,53.16
2023-04-05T03:16:12.031Z,52.69
2023-04-05T03:18:40.476Z,51.97
2023-04-05T03:21:13.142Z,51.32
2023-04-05T03:23:41.539Z,53.69
2023-04-05T03:26:11.253Z,54.25
2023-04-05T03:28:39.710Z,55.23
2023-04-05T03:31:08.079Z,51.69
2023-04-05T03:33:36.490Z,51.64
2023-04-05T03:36:06.452Z,49.97
2023-04-05T03:38:34.848Z,54.93
2023-04-05T03:41:04.200Z,53.84
2023-04-05T03:43:34.056Z,48.88
2023-04-05T03:46:02.540Z,51.88
2023-04-05T03:48:31.000Z,52.39
2023-04-05T03:50:59.756Z,53.43
2023-04-05T03:53:30.535Z,53.63
2023-04-05T03:55:59.188Z,56.76
2023-04-05T03:58:28.528Z,56.86
2023-04-05T04:00:57.822Z,56.82
2023-04-05T04:03:27.059Z,57.21
2023-04-05T04:05:56.044Z,58.48
2023-04-05T04:08:25.014Z,58.93
2023-04-05T04:10:53.506Z,57.48
2023-04-05T04:13:22.580Z,56.61
2023-04-05T04:15:50.977Z,54.80
2023-04-05T04:18:19.422Z,56.15
2023-04-05T04:20:48.731Z,56.50
2023-04-05T04:23:17.832Z,56.23
2023-04-05T04:25:47.111Z,54.16
2023-04-05T04:28:18.845Z,54.05
2023-04-05T04:30:47.626Z,55.35
2023-04-05T04:33:18.432Z,52.93
2023-04-05T04:35:48.040Z,56.07
2023-04-05T04:38:19.886Z,52.64
2023-04-05T04:40:48.629Z,52.46
2023-04-05T04:43:19.889Z,54.36
2023-04-05T04:45:49.272Z,53.85
2023-04-05T04:48:18.689Z,48.99
2023-04-05T04:50:48.459Z,51.14
2023-04-05T04:53:21.549Z,52.31
2023-04-05T04:55:51.142Z,50.24
2023-04-05T04:58:19.534Z,51.31
2023-04-05T05:00:49.206Z,49.32
2023-04-05T05:03:17.589Z,53.67
2023-04-05T05:05:47.877Z,53.50
2023-04-05T05:08:17.346Z,53.48
2023-04-05T05:10:47.310Z,53.39
2023-04-05T05:13:15.643Z,52.75
2023-04-05T05:15:44.002Z,48.11
2023-04-05T05:18:13.431Z,52.52
2023-04-05T05:20:42.633Z,52.95
2023-04-05T05:23:11.441Z,51.84
2023-04-05T05:25:39.798Z,49.21
2023-04-05T05:28:08.169Z,49.99
2023-04-05T05:30:36.558Z,47.61
2023-04-05T05:33:05.526Z,48.64
2023-04-05T05:35:34.083Z,48.67
2023-04-05T05:38:03.775Z,50.26
2023-04-05T05:40:32.213Z,51.78
2023-04-05T05:43:00.530Z,49.51
2023-04-05T05:45:28.950Z,49.06
2023-04-05T05:47:58.089Z,51.31
2023-04-05T05:50:26.578Z,51.17
2023-04-05T05:52:55.625Z,47.00
2023-04-05T05:55:23.999Z,47.98
2023-04-05T05:57:53.851Z,47.00
2023-04-05T06:00:22.471Z,46.67
2023-04-05T06:02:51.411Z,46.08
2023-04-05T06:05:19.967Z,49.95
2023-04-05T06:07:48.315Z,48.70
2023-04-05T06:10:16.742Z,48.51
2023-04-05T06:12:45.108Z,50.57
2023-04-05T06:15:13.463Z,48.09
2023-04-05T06:17:43.435Z,51.08
2023-04-05T06:20:15.060Z,44.83
2023-04-05T06:22:43.601Z,44.73
2023-04-05T06:25:14.060Z,45.11
2023-04-05T06:27:42.816Z,47.04
2023-04-05T06:30:12.075Z,45.05
2023-04-05T06:32:40.461Z,35.52
2023-04-05T06:35:09.417Z,41.24
2023-04-05T06:37:37.823Z,40.83
2023-04-05T06:40:06.935Z,45.77
2023-04-05T06:42:35.279Z,40.88
2023-04-05T06:45:05.296Z,39.21
2023-04-05T06:47:37.881Z,44.93
2023-04-05T06:50:10.686Z,41.03
2023-04-05T06:52:40.315Z,45.19
2023-04-05T06:55:09.183Z,43.53
2023-04-05T06:57:37.593Z,38.62
2023-04-05T07:00:11.721Z,39.37
2023-04-05T07:02:40.531Z,40.37
2023-04-05T07:05:09.835Z,42.45
2023-04-05T07:07:43.567Z,34.45
2023-04-05T07:10:12.576Z,35.17
2023-04-05T07:12:41.804Z,37.61
2023-04-05T07:15:10.723Z,37.03
2023-04-05T07:17:39.270Z,39.21
2023-04-05T07:20:09.088Z,41.50
2023-04-05T07:22:37.623Z,39.30
2023-04-05T07:25:06.684Z,36.98
2023-04-05T07:27:36.470Z,35.29
2023-04-05T07:30:05.052Z,38.62
2023-04-05T07:32:33.500Z,39.62
2023-04-05T07:35:02.010Z,38.47
2023-04-05T07:37:30.367Z,37.41
2023-04-05T07:39:59.464Z,39.26
2023-04-05T07:42:28.929Z,38.79
2023-04-05T07:44:57.319Z,37.49
2023-04-05T07:47:25.862Z,40.73
2023-04-05T07:49:54.225Z,39.10
2023-04-05T07:52:22.567Z,39.05
2023-04-05T07:54:50.979Z,39.67
2023-04-05T07:57:22.768Z,38.22
2023-04-05T07:59:53.504Z,36.19
2023-04-05T08:02:22.404Z,35.06
2023-04-05T08:04:50.748Z,37.91
2023-04-05T08:07:19.264Z,35.60
2023-04-05T08:09:47.659Z,34.39
2023-04-05T08:12:16.067Z,37.79
2023-04-05T08:14:44.416Z,35.03
2023-04-05T08:17:12.858Z,38.00
2023-04-05T08:19:41.329Z,38.03
2023-04-05T08:22:09.732Z,38.62
2023-04-05T08:24:38.367Z,37.50
2023-04-05T08:27:06.741Z,36.31
2023-04-05T08:29:35.242Z,36.40
2023-04-05T08:32:04.018Z,35.28
2023-04-05T08:34:32.424Z,34.98
2023-04-05T08:37:01.533Z,37.85
2023-04-05T08:39:29.927Z,38.68
2023-04-05T08:42:08.684Z,38.69
2023-04-05T08:44:39.955Z,37.85
2023-04-05T08:47:11.235Z,35.02
2023-04-05T08:49:43.489Z,35.13
2023-04-05T08:52:12.552Z,36.74
2023-04-05T08:54:41.011Z,36.47
2023-04-05T08:57:10.775Z,35.19
2023-04-05T08:59:41.983Z,39.32
2023-04-05T09:02:19.279Z,37.33
2023-04-05T09:04:48.768Z,34.81
2023-04-05T09:07:17.804Z,35.69
2023-04-05T09:09:50.157Z,38.08
2023-04-05T09:12:21.821Z,37.91
2023-04-05T09:14:51.379Z,35.79
2023-04-05T09:17:23.071Z,35.47
2023-04-05T09:19:51.505Z,36.21
2023-04-05T09:22:19.931Z,34.59
2023-04-05T09:24:48.370Z,35.43
2023-04-05T09:27:21.247Z,37.52
2023-04-05T09:29:51.079Z,37.66
2023-04-05T09:32:24.524Z,37.34
2023-04-05T09:34:55.080Z,38.25
2023-04-05T09:37:24.132Z,39.22
2023-04-05T09:40:02.810Z,38.54
2023-04-05T09:42:44.769Z,38.77
2023-04-05T09:45:14.127Z,37.49
2023-04-05T09:47:43.177Z,37.57
2023-04-05T09:50:18.090Z,36.63
2023-04-05T09:52:47.211Z,38.06
2023-04-05T09:55:26.984Z,37.30
2023-04-05T09:57:55.528Z,36.28
2023-04-05T10:00:24.671Z,35.59
2023-04-05T10:02:57.745Z,35.37
2023-04-05T10:05:30.590Z,37.20
2023-04-05T10:08:00.346Z,34.75
2023-04-05T10:10:29.542Z,38.43
2023-04-05T10:12:58.235Z,35.04
2023-04-05T10:15:28.221Z,35.44
2023-04-05T10:18:13.633Z,34.19
2023-04-05T10:20:45.957Z,37.71
2023-04-05T10:23:44.464Z,36.73
2023-04-05T10:26:32.273Z,37.82
2023-04-05T10:29:09.117Z,35.67
2023-04-05T10:31:55.048Z,36.57
2023-04-05T10:34:32.143Z,35.87
2023-04-05T10:37:03.135Z,37.50
2023-04-05T10:39:40.846Z,36.45
2023-04-05T10:42:16.876Z,37.67
2023-04-05T10:44:52.766Z,38.33
2023-04-05T10:47:24.870Z,36.25
2023-04-05T10:49:57.576Z,35.98
2023-04-05T10:52:26.905Z,36.12
2023-04-05T10:54:58.837Z,36.52
2023-04-05T10:57:28.003Z,36.46
2023-04-05T10:59:57.515Z,36.53
2023-04-05T11:02:26.496Z,36.51
2023-04-05T11:04:58.346Z,36.93
2023-04-05T11:07:26.882Z,37.33
2023-04-05T11:10:02.308Z,37.20
2023-04-05T11:12:51.950Z,36.86
2023-04-05T11:15:29.588Z,37.06
2023-04-05T11:18:14.309Z,37.12
2023-04-05T11:20:48.427Z,36.80
2023-04-05T11:23:19.700Z,36.15
2023-04-05T11:25:58.557Z,36.22
2023-04-05T11:28:31.565Z,37.65
2023-04-05T11:31:17.701Z,37.20
2023-04-05T11:33:52.141Z,37.01
2023-04-05T11:36:46.924Z,37.27
2023-04-05T11:39:24.119Z,38.24
2023-04-05T11:42:05.620Z,38.42
2023-04-05T11:44:47.035Z,40.49
2023-04-05T11:47:19.122Z,39.12
2023-04-05T11:49:52.192Z,41.42
2023-04-05T11:52:23.077Z,41.63
2023-04-05T11:54:51.744Z,41.07
2023-04-05T11:57:24.661Z,40.72
2023-04-05T11:59:54.313Z,41.49
2023-04-05T12:02:23.495Z,42.15
2023-04-05T12:04:59.051Z,44.66
2023-04-05T12:07:37.844Z,44.20
2023-04-05T12:10:06.154Z,44.47
2023-04-05T12:12:42.717Z,44.24
2023-04-05T12:15:15.128Z,43.15
2023-04-05T12:17:55.347Z,43.38
2023-04-05T12:20:26.659Z,43.09
2023-04-05T12:22:57.224Z,42.36
2023-04-05T12:25:26.212Z,42.75
2023-04-05T12:27:54.567Z,42.14
2023-04-05T12:30:25.091Z,42.80
2023-04-05T12:32:55.519Z,42.27
2023-04-05T12:35:25.996Z,43.04
2023-04-05T12:37:54.678Z,44.03
2023-04-05T12:40:25.362Z,46.06
2023-04-05T12:42:53.762Z,50.42
2023-04-05T12:45:25.091Z,51.07
2023-04-05T12:48:01.215Z,51.46
2023-04-05T12:50:32.303Z,52.20
2023-04-05T12:53:10.689Z,52.87
2023-04-05T12:55:49.123Z,54.52
2023-04-05T12:58:18.633Z,53.99
2023-04-05T13:00:47.723Z,53.24
2023-04-05T13:03:22.294Z,56.56
2023-04-05T13:05:50.799Z,57.58
2023-04-05T13:08:22.072Z,56.72
2023-04-05T13:10:51.473Z,54.22
2023-04-05T13:13:23.348Z,53.86
2023-04-05T13:15:52.375Z,54.62
2023-04-05T13:18:21.565Z,55.30
2023-04-05T13:20:49.971Z,56.02
2023-04-05T13:23:18.400Z,54.79
2023-04-05T13:25:46.767Z,58.90
2023-04-05T13:28:15.244Z,57.91
2023-04-05T13:30:43.711Z,56.70
2023-04-05T13:33:12.123Z,57.22
2023-04-05T13:35:40.839Z,57.61
2023-04-05T13:38:09.427Z,60.12
2023-04-05T13:40:38.048Z,61.60
2023-04-05T13:43:06.690Z,61.77
2023-04-05T13:45:35.612Z,62.82
2023-04-05T13:48:04.468Z,62.92
2023-04-05T13:50:32.947Z,63.46
2023-04-05T13:53:01.689Z,64.81
2023-04-05T13:55:30.124Z,65.05
2023-04-05T13:57:58.536Z,64.08
2023-04-05T14:00:27.955Z,58.84
2023-04-05T14:02:56.970Z,57.89
2023-04-05T14:05:25.399Z,60.97
2023-04-05T14:07:53.920Z,64.56
2023-04-05T14:10:22.806Z,66.51
2023-04-05T14:12:51.426Z,67.92
2023-04-05T14:15:19.916Z,70.23
2023-04-05T14:17:48.340Z,71.22
2023-04-05T14:20:17.024Z,69.21
2023-04-05T14:22:45.494Z,70.23
2023-04-05T14:25:13.931Z,70.22
2023-04-05T14:27:43.366Z,69.53
2023-04-05T14:30:12.189Z,69.66
2023-04-05T14:32:40.808Z,68.43
2023-04-05T14:35:10.033Z,69.40
2023-04-05T14:37:38.474Z,69.44
2023-04-05T14:40:07.353Z,69.14
2023-04-05T14:42:47.910Z,68.27
2023-04-05T14:45:18.368Z,67.45
2023-04-05T14:47:46.931Z,68.28
2023-04-05T14:50:15.477Z,69.44
2023-04-05T14:52:44.101Z,68.62
2023-04-05T14:55:17.353Z,69.55
2023-04-05T14:57:45.978Z,66.87
2023-04-05T15:00:15.808Z,66.45
2023-04-05T15:02:46.193Z,67.82
2023-04-05T15:05:14.778Z,68.82
2023-04-05T15:07:43.172Z,69.12
2023-04-05T15:10:11.976Z,69.43
2023-04-05T15:12:40.703Z,68.67
2023-04-05T15:15:09.475Z,65.63
2023-04-05T15:17:37.953Z,69.18
2023-04-05T15:20:06.941Z,70.15
2023-04-05T15:22:36.842Z,68.98
2023-04-05T15:25:05.632Z,68.09
2023-04-05T15:27:33.997Z,67.73
2023-04-05T15:30:02.711Z,68.69
2023-04-05T15:32:34.584Z,70.53
2023-04-05T15:35:03.391Z,72.00
2023-04-05T15:37:32.006Z,72.04
2023-04-05T15:40:02.786Z,72.92
2023-04-05T15:42:32.309Z,71.50
2023-04-05T15:45:00.681Z,70.29
2023-04-05T15:47:29.131Z,68.27
2023-04-05T15:49:57.596Z,68.21
2023-04-05T15:52:26.019Z,67.56
2023-04-05T15:54:54.436Z,66.92
2023-04-05T15:57:23.264Z,68.07
2023-04-05T15:59:51.682Z,68.07
2023-04-05T16:02:20.177Z,67.69
2023-04-05T16:04:48.616Z,67.58
2023-04-05T16:07:17.249Z,66.30
2023-04-05T16:09:45.654Z,66.63
2023-04-05T16:12:14.219Z,67.26
2023-04-05T16:14:42.661Z,69.25
2023-04-05T16:17:11.327Z,68.43
2023-04-05T16:19:40.124Z,63.42
2023-04-05T16:22:08.509Z,65.76
2023-04-05T16:24:39.219Z,67.34
2023-04-05T16:27:07.780Z,66.40
2023-04-05T16:29:36.130Z,68.00
2023-04-05T16:32:05.412Z,69.30
2023-04-05T16:34:33.932Z,68.92
2023-04-05T16:37:02.444Z,70.15
2023-04-05T16:39:30.934Z,70.53
2023-04-05T16:41:59.371Z,70.61
2023-04-05T16:44:28.329Z,70.59
2023-04-05T16:46:57.916Z,68.73
2023-04-05T16:49:26.406Z,67.66
2023-04-05T16:51:55.192Z,68.23
2023-04-05T16:54:23.608Z,66.20
2023-04-05T16:56:52.095Z,65.94
2023-04-05T16:59:20.641Z,67.12
2023-04-05T17:01:49.169Z,67.56
2023-04-05T17:04:17.591Z,66.83
2023-04-05T17:06:46.128Z,65.73
2023-04-05T17:09:14.472Z,64.84
2023-04-05T17:11:42.924Z,64.31
2023-04-05T17:14:11.288Z,63.62
2023-04-05T17:16:40.377Z,63.10
2023-04-05T17:19:08.741Z,63.50
2023-04-05T17:21:37.293Z,63.36
2023-04-05T17:24:05.835Z,64.00
2023-04-05T17:26:34.519Z,64.08
2023-04-05T17:29:03.193Z,64.29
2023-04-05T17:31:34.288Z,64.59
2023-04-05T17:34:03.202Z,66.10
2023-04-05T17:36:31.612Z,68.05
2023-04-05T17:38:59.964Z,67.09
2023-04-05T17:41:28.371Z,66.04
2023-04-05T17:43:56.804Z,65.19
2023-04-05T17:46:37.718Z,63.49
2023-04-05T17:49:09.041Z,63.44
2023-04-05T17:51:37.454Z,62.97
2023-04-05T17:54:05.884Z,63.89
2023-04-05T17:56:34.493Z,64.93
2023-04-05T17:59:03.328Z,64.43
2023-04-05T18:01:32.001Z,63.81
2023-04-05T18:04:00.802Z,61.97
2023-04-05T18:06:29.373Z,65.49
2023-04-05T18:08:57.740Z,67.04
2023-04-05T18:11:26.386Z,65.74
2023-04-05T18:13:54.722Z,64.56
2023-04-05T18:16:23.727Z,69.99
2023-04-05T18:18:52.738Z,71.53
2023-04-05T18:21:21.302Z,73.80
2023-04-05T18:23:49.959Z,74.79
2023-04-05T18:26:19.696Z,70.88
2023-04-05T18:28:48.657Z,73.90
2023-04-05T18:31:17.286Z,73.68
2023-04-05T18:33:45.694Z,69.79
2023-04-05T18:36:14.160Z,67.94
2023-04-05T18:38:42.584Z,67.68
2023-04-05T18:41:13.329Z,68.64
2023-04-05T18:43:41.777Z,69.64
2023-04-05T18:46:11.417Z,64.15
2023-04-05T18:48:40.244Z,65.88
2023-04-05T18:51:08.599Z,66.51
2023-04-05T18:53:37.629Z,68.61
2023-04-05T18:56:06.061Z,68.38
2023-04-05T18:58:34.565Z,67.80
2023-04-05T19:01:07.162Z,68.27
2023-04-05T19:03:35.554Z,67.56
2023-04-05T19:06:04.008Z,67.22
2023-04-05T19:08:32.409Z,68.38
2023-04-05T19:11:00.792Z,68.89
2023-04-05T19:13:29.333Z,67.21
2023-04-05T19:15:58.477Z,68.37
2023-04-05T19:18:28.723Z,68.67
2023-04-05T19:21:02.184Z,70.53
2023-04-05T19:23:30.641Z,71.47
2023-04-05T19:25:59.644Z,69.00
2023-04-05T19:28:28.551Z,67.69
2023-04-05T19:30:57.405Z,67.46
2023-04-05T19:33:25.808Z,66.37
2023-04-05T19:35:54.247Z,67.89
2023-04-05T19:38:23.447Z,67.85
2023-04-05T19:40:51.974Z,68.01
2023-04-05T19:43:20.396Z,68.51
2023-04-05T19:45:57.606Z,68.51
2023-04-05T19:48:43.430Z,67.81
2023-04-05T19:51:15.324Z,68.27
2023-04-05T19:53:51.636Z,69.96
2023-04-05T19:56:25.952Z,73.04
2023-04-05T19:59:15.810Z,73.99
2023-04-05T20:01:48.178Z,74.38
2023-04-05T20:04:19.678Z,74.84
2023-04-05T20:06:54.773Z,75.19
2023-04-05T20:09:25.228Z,74.34
2023-04-05T20:12:00.707Z,73.46
2023-04-05T20:14:43.491Z,73.15
2023-04-05T20:17:13.869Z,72.37
2023-04-05T20:19:56.920Z,73.30
2023-04-05T20:22:27.434Z,74.67
2023-04-05T20:24:55.879Z,77.63
2023-04-05T20:27:24.341Z,76.99
2023-04-05T20:29:53.372Z,76.91
2023-04-05T20:32:23.703Z,76.32
2023-04-05T20:34:52.200Z,75.68
2023-04-05T20:37:20.550Z,75.71
2023-04-05T20:39:49.124Z,76.05
2023-04-05T20:42:17.521Z,77.02
2023-04-05T20:44:47.591Z,75.46
2023-04-05T20:47:16.516Z,73.52
2023-04-05T20:49:46.744Z,75.49
2023-04-05T20:52:15.261Z,76.18
2023-04-05T20:54:43.815Z,76.00
2023-04-05T20:57:12.689Z,75.54
2023-04-05T20:59:41.494Z,74.06
2023-04-05T21:02:09.965Z,74.86
2023-04-05T21:04:39.034Z,73.81
2023-04-05T21:07:08.081Z,73.96
2023-04-05T21:09:36.714Z,74.96
2023-04-05T21:12:05.272Z,73.04
2023-04-05T21:14:33.640Z,74.06
2023-04-05T21:17:02.152Z,73.99
2023-04-05T21:19:30.631Z,76.30
2023-04-05T21:21:58.999Z,75.68
2023-04-05T21:24:27.481Z,77.29
2023-04-05T21:26:55.863Z,75.63
2023-04-05T21:29:24.275Z,77.53
2023-04-05T21:31:52.742Z,76.62
2023-04-05T21:34:21.142Z,76.93
2023-04-05T21:36:49.613Z,76.52
2023-04-05T21:39:18.034Z,75.31
2023-04-05T21:41:46.558Z,75.50
2023-04-05T21:44:15.762Z,76.59
2023-04-05T21:46:44.263Z,77.43
2023-04-05T21:49:12.713Z,77.19
2023-04-05T21:51:41.864Z,77.42
2023-04-05T21:54:12.423Z,76.35
2023-04-05T21:56:41.555Z,76.76
2023-04-05T21:59:10.447Z,77.73
2023-04-05T22:01:39.146Z,77.39
2023-04-05T22:04:07.552Z,77.51
2023-04-05T22:06:35.932Z,81.15
2023-04-05T22:09:04.455Z,80.30
2023-04-05T22:11:33.729Z,80.37
2023-04-05T22:14:04.377Z,80.17
2023-04-05T22:16:33.024Z,80.90
2023-04-05T22:19:01.550Z,80.93
2023-04-05T22:21:30.615Z,77.35
2023-04-05T22:23:59.049Z,77.91
2023-04-05T22:26:27.530Z,77.75
2023-04-05T22:28:56.273Z,76.92
2023-04-05T22:31:24.731Z,74.83
2023-04-05T22:33:53.159Z,75.20
2023-04-05T22:36:21.921Z,74.75
2023-04-05T22:38:51.666Z,76.45
2023-04-05T22:41:22.405Z,74.51
2023-04-05T22:43:50.785Z,73.42
2023-04-05T22:46:19.593Z,75.81
2023-04-05T22:48:48.040Z,73.82
2023-04-05T22:51:16.629Z,75.68
2023-04-05T22:53:45.185Z,76.27
2023-04-05T22:56:15.487Z,75.78
2023-04-05T22:58:43.872Z,78.50
2023-04-05T23:01:12.380Z,77.81
2023-04-05T23:03:40.776Z,76.18
2023-04-05T23:06:09.192Z,74.60
2023-04-05T23:08:37.704Z,74.45
2023-04-05T23:11:06.239Z,74.18
2023-04-05T23:13:34.712Z,71.74
2023-04-05T23:16:03.252Z,72.73
2023-04-05T23:18:32.000Z,73.48
2023-04-05T23:21:00.480Z,73.75
2023-04-05T23:23:29.378Z,73.37
2023-04-05T23:25:58.143Z,72.92
2023-04-05T23:28:26.873Z,72.04
2023-04-05T23:30:55.264Z,74.14
2023-04-05T23:33:23.731Z,76.26
2023-04-05T23:35:52.203Z,77.54
2023-04-05T23:38:20.636Z,77.20
2023-04-05T23:40:49.019Z,77.05
2023-04-05T23:43:17.659Z,77.43
2023-04-05T23:45:46.357Z,77.71
2023-04-05T23:48:14.749Z,77.27
2023-04-05T23:50:43.159Z,76.88
2023-04-05T23:53:11.732Z,78.16
2023-04-05T23:55:41.538Z,79.14
2023-04-05T23:58:10.256Z,80.48
